Time;durP1;ratioP1;P1;durP2;ratioP2;P2;SDS_P1;SDS_P2;PMS_P1;PMS_P2;Temp;Humidity;BMP_temperature;BMP_pressure;BME280_temperature;BME280_humidity;BME280_pressure;Samples;Min_cycle;Max_cycle;Signal;HPM_P1;HPM_P2
2021/12/15 00:00:43;;;;;;;35.33;24.63;;;6.00;99.90;;;;;;5006043;28;20246;-77
2021/12/15 00:03:11;;;;;;;35.03;22.57;;;6.10;99.90;;;;;;4999472;28;20247;-77
2021/12/15 00:05:40;;;;;;;34.00;22.10;;;6.00;99.90;;;;;;4999149;28;20218;-77
2021/12/15 00:08:11;;;;;;;32.57;21.53;;;6.00;99.90;;;;;;5006997;28;20685;-77
2021/12/15 00:10:39;;;;;;;35.50;23.20;;;6.00;99.90;;;;;;5001056;28;20193;-77
2021/12/15 00:13:07;;;;;;;28.57;20.53;;;6.00;99.90;;;;;;5006500;28;20255;-77
2021/12/15 00:15:34;;;;;;;35.97;23.00;;;6.10;99.90;;;;;;5000407;28;20577;-76
2021/12/15 00:18:01;;;;;;;32.90;21.97;;;6.00;99.90;;;;;;5006835;28;20259;-76
2021/12/15 00:20:33;;;;;;;34.63;23.30;;;6.00;99.90;;;;;;4993978;28;20198;-77
2021/12/15 00:23:01;;;;;;;32.07;23.13;;;6.00;99.90;;;;;;5000573;28;20259;-76
2021/12/15 00:25:32;;;;;;;37.87;23.90;;;6.00;99.90;;;;;;4992883;28;20760;-76
2021/12/15 00:27:59;;;;;;;35.43;24.27;;;6.00;99.90;;;;;;4995291;28;20201;-76
2021/12/15 00:30:27;;;;;;;36.90;24.03;;;6.00;99.90;;;;;;5006305;28;20209;-77
2021/12/15 00:32:55;;;;;;;35.47;22.53;;;6.00;99.90;;;;;;4993507;28;20205;-77
2021/12/15 00:35:23;;;;;;;34.13;21.73;;;6.00;99.90;;;;;;5000319;28;20225;-76
2021/12/15 00:37:52;;;;;;;34.70;22.67;;;6.00;99.90;;;;;;5000182;28;20189;-76
2021/12/15 00:40:22;;;;;;;31.97;21.80;;;6.00;99.90;;;;;;5001745;28;20197;-76
2021/12/15 00:42:49;;;;;;;31.93;22.20;;;6.00;99.90;;;;;;5000938;28;20205;-76
2021/12/15 00:45:17;;;;;;;30.37;20.33;;;6.00;99.90;;;;;;5004616;28;20240;-77
2021/12/15 00:47:44;;;;;;;29.50;20.83;;;6.00;99.90;;;;;;5000782;28;20193;-76
2021/12/15 00:50:15;;;;;;;30.37;20.30;;;6.00;99.90;;;;;;5001764;28;20202;-77
2021/12/15 00:52:44;;;;;;;33.00;22.10;;;6.00;99.90;;;;;;4998051;28;20258;-77
2021/12/15 00:55:15;;;;;;;33.17;21.37;;;6.00;99.90;;;;;;5002328;28;20219;-76
2021/12/15 00:57:43;;;;;;;33.47;21.37;;;6.00;99.90;;;;;;5003422;28;20591;-76
2021/12/15 01:00:13;;;;;;;31.40;20.97;;;6.00;99.90;;;;;;4996260;28;20204;-76
2021/12/15 01:02:41;;;;;;;33.90;22.13;;;6.00;99.90;;;;;;5002315;28;20756;-76
2021/12/15 01:05:10;;;;;;;32.90;21.53;;;6.00;99.90;;;;;;4996391;28;20274;-76
2021/12/15 01:07:37;;;;;;;34.80;22.13;;;6.00;99.90;;;;;;5002905;28;20203;-77
2021/12/15 01:10:07;;;;;;;32.07;21.87;;;6.00;99.90;;;;;;5003297;28;20204;-75
2021/12/15 01:14:29;;;;;;;28.10;19.87;;;6.00;99.90;;;;;;5002268;28;20200;-76
2021/12/15 01:20:59;;;;;;;33.13;21.33;;;6.00;99.90;;;;;;5002402;28;20201;-76
2021/12/15 01:23:29;;;;;;;30.67;21.30;;;6.00;99.90;;;;;;5007033;28;20197;-76
2021/12/15 01:25:59;;;;;;;32.10;21.97;;;6.00;99.90;;;;;;5002071;28;20276;-77
2021/12/15 01:28:28;;;;;;;35.40;22.77;;;6.00;99.90;;;;;;5005201;28;20204;-76
2021/12/15 01:30:56;;;;;;;38.17;24.20;;;6.00;99.90;;;;;;4993557;28;20207;-77
2021/12/15 01:33:24;;;;;;;32.23;21.27;;;6.00;99.90;;;;;;5005207;28;20620;-77
2021/12/15 01:35:52;;;;;;;34.87;23.70;;;6.00;99.90;;;;;;5007211;28;20218;-76
2021/12/15 01:38:21;;;;;;;34.80;22.50;;;6.00;99.90;;;;;;5004046;28;20264;-77
2021/12/15 01:40:48;;;;;;;40.20;25.33;;;6.00;99.90;;;;;;4998253;28;20201;-77
2021/12/15 01:43:22;;;;;;;34.00;22.73;;;6.00;99.90;;;;;;4998086;28;20214;-77
2021/12/15 01:48:42;;;;;;;33.17;24.63;;;6.00;99.90;;;;;;4950952;28;20206;-76
2021/12/15 01:51:12;;;;;;;36.63;24.13;;;6.00;99.90;;;;;;4999575;28;20201;-77
2021/12/15 01:53:39;;;;;;;40.40;24.23;;;6.00;99.90;;;;;;5005767;28;20194;-76
2021/12/15 01:56:07;;;;;;;34.60;24.13;;;6.00;99.90;;;;;;5009846;28;20213;-77
2021/12/15 01:58:34;;;;;;;35.10;24.10;;;6.00;99.90;;;;;;4996002;28;20205;-76
2021/12/15 02:01:06;;;;;;;38.60;24.47;;;6.00;99.90;;;;;;5004240;28;20665;-77
2021/12/15 02:03:33;;;;;;;42.40;25.60;;;6.00;99.90;;;;;;5000771;28;20204;-76
2021/12/15 02:06:00;;;;;;;34.23;24.00;;;6.00;99.90;;;;;;5004574;28;20220;-77
2021/12/15 02:08:27;;;;;;;35.83;24.47;;;6.00;99.90;;;;;;5008456;28;20201;-76
2021/12/15 02:10:54;;;;;;;34.83;22.97;;;6.00;99.90;;;;;;4996434;28;20584;-77
2021/12/15 02:13:22;;;;;;;32.43;22.67;;;6.00;99.90;;;;;;5004049;28;20213;-76
2021/12/15 02:15:53;;;;;;;39.60;24.27;;;6.00;99.90;;;;;;5006639;28;20228;-77
2021/12/15 02:18:26;;;;;;;29.57;20.50;;;6.00;99.90;;;;;;4995534;28;20194;-77
2021/12/15 02:20:56;;;;;;;43.47;26.57;;;6.10;99.90;;;;;;5000476;28;20189;-77
2021/12/15 02:23:32;;;;;;;35.53;23.80;;;6.00;99.90;;;;;;5001793;28;20251;-77
2021/12/15 02:25:59;;;;;;;29.87;20.57;;;6.00;99.90;;;;;;5002537;28;20220;-76
2021/12/15 02:28:26;;;;;;;35.13;23.07;;;6.00;99.90;;;;;;5004738;28;20210;-77
2021/12/15 02:30:59;;;;;;;33.10;21.33;;;6.00;99.90;;;;;;4997751;28;20260;-77
2021/12/15 02:39:08;;;;;;;33.70;22.77;;;6.00;99.90;;;;;;5002970;28;20232;-76
2021/12/15 02:41:43;;;;;;;33.03;22.20;;;6.00;99.90;;;;;;4999469;28;20227;-76
2021/12/15 02:44:14;;;;;;;36.93;24.57;;;6.00;99.90;;;;;;4990273;28;20223;-77
2021/12/15 02:46:41;;;;;;;34.43;20.90;;;6.00;99.90;;;;;;5004960;28;20193;-77
2021/12/15 02:49:10;;;;;;;30.33;20.03;;;6.00;99.90;;;;;;4992178;28;20746;-77
2021/12/15 02:51:43;;;;;;;39.73;25.60;;;6.00;99.90;;;;;;5009161;28;20263;-77
2021/12/15 02:54:12;;;;;;;38.20;23.03;;;6.00;99.90;;;;;;5003102;28;20213;-77
2021/12/15 02:56:41;;;;;;;30.80;21.53;;;6.00;99.90;;;;;;4989485;28;20312;-76
2021/12/15 02:59:10;;;;;;;32.77;21.60;;;6.00;99.90;;;;;;4993372;28;20626;-76
2021/12/15 03:01:56;;;;;;;32.20;21.13;;;6.00;99.90;;;;;;4999387;28;20205;-77
2021/12/15 03:04:36;;;;;;;33.27;20.00;;;6.00;99.90;;;;;;4988289;28;20225;-76
2021/12/15 03:07:12;;;;;;;25.77;18.33;;;6.00;99.90;;;;;;4989330;28;20213;-76
2021/12/15 03:15:34;;;;;;;37.93;24.87;;;6.00;99.90;;;;;;4998179;28;20612;-77
2021/12/15 03:18:05;;;;;;;38.43;23.90;;;6.00;99.90;;;;;;4992226;28;20205;-77
2021/12/15 03:20:36;;;;;;;38.10;24.73;;;6.00;99.90;;;;;;5001548;28;20197;-76
2021/12/15 03:23:07;;;;;;;33.87;22.53;;;6.00;99.90;;;;;;5001190;28;20197;-77
2021/12/15 03:25:33;;;;;;;32.47;21.67;;;6.00;99.90;;;;;;4993890;28;20296;-78
2021/12/15 03:33:39;;;;;;;35.40;21.93;;;6.00;99.90;;;;;;4992778;28;20251;-78
2021/12/15 03:36:12;;;;;;;33.63;21.60;;;6.00;99.90;;;;;;5002026;28;20296;-75
2021/12/15 03:38:44;;;;;;;29.97;18.83;;;6.00;99.90;;;;;;5002396;28;20189;-76
2021/12/15 03:41:12;;;;;;;30.87;20.30;;;6.00;99.90;;;;;;5009522;28;20665;-77
2021/12/15 03:43:40;;;;;;;34.13;21.73;;;6.00;99.90;;;;;;5009029;28;20200;-77
2021/12/15 03:46:09;;;;;;;43.17;24.73;;;6.00;99.90;;;;;;4998600;28;20217;-78
2021/12/15 03:48:40;;;;;;;35.43;22.80;;;6.00;99.90;;;;;;4985406;28;20198;-79
2021/12/15 03:51:07;;;;;;;38.20;22.50;;;6.00;99.90;;;;;;4990037;28;20640;-80
2021/12/15 03:53:34;;;;;;;36.53;23.43;;;6.00;99.90;;;;;;4994201;28;20244;-78
2021/12/15 03:56:03;;;;;;;38.63;26.10;;;6.00;99.90;;;;;;4990735;28;20222;-81
2021/12/15 03:58:30;;;;;;;38.07;23.93;;;6.00;99.90;;;;;;4993128;28;20690;-78
2021/12/15 04:01:02;;;;;;;34.17;22.57;;;6.00;99.90;;;;;;4992997;28;20589;-78
2021/12/15 04:03:31;;;;;;;34.63;23.80;;;6.00;99.90;;;;;;5001766;28;20301;-78
2021/12/15 04:06:00;;;;;;;32.93;21.50;;;6.00;99.90;;;;;;5002063;28;20641;-78
2021/12/15 04:08:29;;;;;;;32.87;23.17;;;6.00;99.90;;;;;;4983283;28;20210;-79
2021/12/15 04:10:57;;;;;;;36.17;21.67;;;6.00;99.90;;;;;;5008709;28;20301;-78
2021/12/15 04:13:25;;;;;;;28.47;19.30;;;6.00;99.90;;;;;;5000812;28;20226;-79
2021/12/15 04:15:56;;;;;;;37.27;23.73;;;6.00;99.90;;;;;;4995335;28;20232;-79
2021/12/15 04:18:23;;;;;;;25.77;17.57;;;6.00;99.90;;;;;;4994150;28;20193;-78
2021/12/15 04:20:51;;;;;;;29.27;20.10;;;6.00;99.90;;;;;;4996392;28;20192;-78
2021/12/15 04:23:20;;;;;;;33.23;22.17;;;6.00;99.90;;;;;;4990907;28;20662;-76
2021/12/15 04:25:50;;;;;;;39.23;24.23;;;6.00;99.90;;;;;;4975865;28;20269;-77
2021/12/15 04:28:20;;;;;;;42.43;24.93;;;6.00;99.90;;;;;;5003324;28;20208;-77
2021/12/15 04:30:54;;;;;;;33.73;23.20;;;6.00;99.90;;;;;;5000796;28;20299;-77
2021/12/15 04:33:24;;;;;;;34.67;22.23;;;5.90;99.90;;;;;;5003631;28;20244;-77
2021/12/15 04:35:54;;;;;;;31.40;19.70;;;5.90;99.90;;;;;;4991466;28;20273;-77
2021/12/15 04:38:22;;;;;;;31.27;19.67;;;6.00;99.90;;;;;;4998881;28;20296;-77
2021/12/15 04:40:49;;;;;;;25.30;18.20;;;6.00;99.90;;;;;;5000625;28;20198;-79
2021/12/15 04:43:17;;;;;;;24.87;17.50;;;6.00;99.90;;;;;;5000892;28;20674;-78
2021/12/15 04:45:45;;;;;;;24.27;16.53;;;6.00;99.90;;;;;;4999196;28;20228;-76
2021/12/15 04:48:16;;;;;;;28.67;18.77;;;6.00;99.90;;;;;;4996212;28;20761;-77
2021/12/15 04:50:43;;;;;;;30.37;18.93;;;6.00;99.90;;;;;;4996814;28;20242;-77
2021/12/15 04:53:10;;;;;;;35.63;23.87;;;6.00;99.90;;;;;;4998279;28;20244;-78
2021/12/15 04:55:39;;;;;;;31.07;21.40;;;5.90;99.90;;;;;;4999298;28;20276;-76
2021/12/15 04:58:09;;;;;;;28.33;19.83;;;5.90;99.90;;;;;;5001364;28;20256;-77
2021/12/15 05:00:39;;;;;;;32.30;20.53;;;5.90;99.90;;;;;;5004472;28;20193;-76
2021/12/15 05:03:06;;;;;;;31.07;20.13;;;5.90;99.90;;;;;;5003785;28;20544;-76
2021/12/15 05:05:35;;;;;;;31.47;21.57;;;6.00;99.90;;;;;;5006613;28;20215;-77
2021/12/15 05:08:03;;;;;;;27.27;19.03;;;5.90;99.90;;;;;;5006338;28;20193;-77
2021/12/15 05:10:30;;;;;;;29.87;21.17;;;6.00;99.90;;;;;;4992121;28;20654;-78
2021/12/15 05:12:58;;;;;;;24.20;17.03;;;5.90;99.90;;;;;;5001726;28;20233;-78
2021/12/15 05:15:26;;;;;;;29.90;19.80;;;5.90;99.90;;;;;;5003697;28;20215;-76
2021/12/15 05:17:53;;;;;;;27.03;19.23;;;5.90;99.90;;;;;;5004016;28;20667;-77
2021/12/15 05:20:22;;;;;;;27.10;20.00;;;5.90;99.90;;;;;;5003991;28;20205;-77
2021/12/15 05:22:51;;;;;;;29.30;19.90;;;5.90;99.90;;;;;;5004048;28;20194;-76
2021/12/15 05:25:18;;;;;;;25.07;18.27;;;5.90;99.90;;;;;;5001781;28;20240;-77
2021/12/15 05:27:46;;;;;;;29.30;19.60;;;5.90;99.90;;;;;;5000891;28;20208;-77
2021/12/15 05:30:16;;;;;;;34.27;23.27;;;5.90;99.90;;;;;;4995691;28;20258;-77
2021/12/15 05:32:43;;;;;;;35.17;22.97;;;5.90;99.90;;;;;;5006938;28;20189;-77
2021/12/15 05:35:15;;;;;;;38.47;23.87;;;5.90;99.90;;;;;;5005766;28;20271;-77
2021/12/15 05:37:42;;;;;;;30.07;20.80;;;5.90;99.90;;;;;;5004995;28;20221;-77
2021/12/15 05:40:11;;;;;;;31.07;20.40;;;5.90;99.90;;;;;;4996928;28;20252;-77
2021/12/15 05:42:38;;;;;;;28.93;21.03;;;5.90;99.90;;;;;;5005106;28;20217;-77
2021/12/15 05:45:06;;;;;;;27.37;20.10;;;5.90;99.90;;;;;;4999573;28;20268;-77
2021/12/15 05:47:33;;;;;;;24.30;17.07;;;5.90;99.90;;;;;;5006416;28;20189;-77
2021/12/15 05:50:00;;;;;;;26.07;16.33;;;6.00;99.90;;;;;;5001610;28;20210;-77
2021/12/15 05:52:30;;;;;;;17.87;13.47;;;6.00;99.90;;;;;;5005231;28;20260;-77
2021/12/15 05:54:57;;;;;;;16.97;13.17;;;6.00;99.90;;;;;;5010582;28;20561;-77
2021/12/15 05:57:25;;;;;;;18.07;13.30;;;6.00;99.90;;;;;;4995753;28;20217;-77
2021/12/15 05:59:52;;;;;;;18.50;13.27;;;6.00;99.90;;;;;;4995134;28;20229;-77
2021/12/15 06:02:19;;;;;;;16.30;11.77;;;6.00;99.90;;;;;;5008521;28;20205;-77
2021/12/15 06:04:46;;;;;;;11.73;10.43;;;5.90;99.90;;;;;;4998670;28;20218;-75
2021/12/15 06:07:13;;;;;;;14.00;10.83;;;5.90;99.90;;;;;;5010718;28;20200;-75
2021/12/15 06:09:41;;;;;;;12.03;9.77;;;6.00;99.90;;;;;;5005169;28;20198;-75
2021/12/15 06:12:09;;;;;;;12.40;9.73;;;6.00;99.90;;;;;;5010045;28;20251;-76
2021/12/15 06:14:38;;;;;;;9.10;8.20;;;6.00;99.90;;;;;;5001035;28;20229;-75
2021/12/15 06:17:08;;;;;;;10.37;8.23;;;6.00;99.90;;;;;;5001399;28;20213;-75
2021/12/15 06:19:35;;;;;;;10.73;8.20;;;5.90;99.90;;;;;;4996406;28;20268;-75
2021/12/15 06:22:04;;;;;;;14.13;10.40;;;5.90;99.90;;;;;;4991603;28;20210;-75
2021/12/15 06:24:31;;;;;;;11.63;9.20;;;5.90;99.90;;;;;;4994880;28;20233;-75
2021/12/15 06:27:04;;;;;;;15.90;11.27;;;5.90;99.90;;;;;;5002162;28;20190;-75
2021/12/15 06:29:33;;;;;;;14.20;9.83;;;5.90;99.90;;;;;;4995194;28;20741;-75
2021/12/15 06:32:01;;;;;;;12.50;9.57;;;5.90;99.90;;;;;;5001000;28;20211;-75
2021/12/15 06:34:28;;;;;;;9.87;7.73;;;5.90;99.90;;;;;;4993814;28;20225;-75
2021/12/15 06:36:57;;;;;;;8.90;7.70;;;5.90;99.90;;;;;;5003320;28;20221;-75
2021/12/15 06:39:24;;;;;;;8.33;7.43;;;5.90;99.90;;;;;;5000154;28;20197;-75
2021/12/15 06:41:54;;;;;;;9.67;8.00;;;5.90;99.90;;;;;;5001098;28;20611;-75
2021/12/15 06:44:20;;;;;;;9.47;7.60;;;5.90;99.90;;;;;;5001960;28;20726;-75
2021/12/15 06:47:20;;;;;;;8.43;7.50;;;5.90;99.90;;;;;;5000688;28;20790;-75
2021/12/15 06:58:17;;;;;;;7.43;6.67;;;5.80;99.90;;;;;;4980021;28;20195;-76
2021/12/15 07:00:47;;;;;;;8.83;7.13;;;5.80;99.90;;;;;;4984482;28;20273;-76
2021/12/15 07:03:16;;;;;;;7.80;7.03;;;5.80;99.90;;;;;;5003773;28;20254;-76
2021/12/15 07:05:45;;;;;;;9.13;7.30;;;5.80;99.90;;;;;;5000841;28;20216;-76
2021/12/15 07:08:12;;;;;;;8.57;6.87;;;5.80;99.90;;;;;;4998209;28;20247;-76
2021/12/15 07:10:44;;;;;;;9.57;7.60;;;5.80;99.90;;;;;;4996414;28;20266;-76
2021/12/15 07:13:12;;;;;;;8.70;7.07;;;5.80;99.90;;;;;;4997974;28;20255;-76
2021/12/15 07:15:39;;;;;;;7.80;7.00;;;5.80;99.90;;;;;;5000190;28;20733;-76
2021/12/15 07:18:10;;;;;;;8.63;6.70;;;5.80;99.90;;;;;;5000616;28;20620;-77
2021/12/15 07:20:41;;;;;;;8.07;6.50;;;5.80;99.90;;;;;;4994880;28;20204;-77
2021/12/15 07:23:11;;;;;;;6.67;5.97;;;5.70;99.90;;;;;;5003790;28;20204;-77
2021/12/15 07:25:40;;;;;;;7.47;6.67;;;5.70;99.90;;;;;;5003882;28;20220;-77
2021/12/15 07:28:07;;;;;;;6.63;5.87;;;5.70;99.90;;;;;;5004589;28;20200;-75
2021/12/15 07:30:36;;;;;;;7.27;6.40;;;5.70;99.90;;;;;;5005582;28;20220;-77
2021/12/15 07:33:03;;;;;;;6.33;5.33;;;5.70;99.90;;;;;;5010811;28;20247;-76
2021/12/15 07:35:31;;;;;;;6.73;6.03;;;5.70;99.90;;;;;;4997622;28;20220;-76
2021/12/15 07:37:58;;;;;;;7.03;6.27;;;5.70;99.90;;;;;;4987782;28;20777;-77
2021/12/15 07:40:27;;;;;;;7.67;6.07;;;5.70;99.90;;;;;;4998570;28;20229;-77
2021/12/15 07:43:04;;;;;;;7.67;6.07;;;5.80;99.90;;;;;;5003250;28;20193;-76
2021/12/15 07:45:33;;;;;;;7.13;6.20;;;5.80;99.90;;;;;;4992741;28;20221;-76
2021/12/15 07:48:02;;;;;;;6.43;5.80;;;5.80;99.90;;;;;;4998814;28;20647;-77
2021/12/15 07:50:30;;;;;;;7.20;6.20;;;5.70;99.90;;;;;;4998315;28;20205;-76
2021/12/15 07:52:57;;;;;;;7.73;6.33;;;5.70;99.90;;;;;;4995088;28;20201;-76
2021/12/15 07:55:26;;;;;;;7.83;6.63;;;5.70;99.90;;;;;;4998882;28;20710;-77
2021/12/15 07:57:56;;;;;;;7.07;5.73;;;5.70;99.90;;;;;;5001716;28;20510;-76
2021/12/15 08:00:24;;;;;;;8.57;5.90;;;5.70;99.90;;;;;;4998084;28;20211;-77
2021/12/15 08:02:52;;;;;;;7.57;5.77;;;5.70;99.90;;;;;;4996986;28;20205;-76
2021/12/15 08:05:19;;;;;;;7.07;6.00;;;5.70;99.90;;;;;;5000282;28;20271;-76
2021/12/15 08:07:46;;;;;;;6.63;5.90;;;5.70;99.90;;;;;;4997729;28;20193;-76
2021/12/15 08:10:13;;;;;;;8.00;6.03;;;5.70;99.90;;;;;;5000343;28;20284;-76
2021/12/15 08:12:44;;;;;;;7.00;5.63;;;5.70;99.90;;;;;;4992101;28;20657;-76
2021/12/15 08:16:59;;;;;;;6.83;5.83;;;5.70;99.90;;;;;;5138874;27;20476;-77
2021/12/15 08:19:25;;;;;;;6.83;5.43;;;5.80;99.90;;;;;;5121946;28;20242;-77
2021/12/15 08:21:52;;;;;;;6.73;5.87;;;5.80;99.90;;;;;;5130928;28;20242;-77
2021/12/15 08:24:19;;;;;;;8.83;6.53;;;5.70;99.90;;;;;;5127796;27;20231;-77
2021/12/15 08:26:46;;;;;;;8.00;5.80;;;5.80;99.90;;;;;;5127814;27;20193;-77
2021/12/15 08:29:13;;;;;;;8.27;5.97;;;5.80;99.90;;;;;;5128669;22;20227;-84
2021/12/15 08:31:40;;;;;;;9.03;6.60;;;5.80;99.90;;;;;;5068771;28;20195;-83
2021/12/15 08:34:09;;;;;;;7.53;5.90;;;5.80;99.90;;;;;;5068106;28;20586;-80
2021/12/15 08:36:37;;;;;;;7.67;6.13;;;5.80;99.90;;;;;;5067637;28;20309;-84
2021/12/15 08:39:07;;;;;;;7.33;6.07;;;5.80;99.90;;;;;;5067641;28;20778;-82
2021/12/15 08:41:34;;;;;;;6.30;5.33;;;5.80;99.90;;;;;;5069438;28;20198;-82
2021/12/15 08:44:06;;;;;;;7.83;5.37;;;5.80;99.90;;;;;;5069535;28;20719;-82
2021/12/15 08:46:38;;;;;;;6.70;5.60;;;5.80;99.90;;;;;;5061969;28;20206;-81
2021/12/15 08:49:06;;;;;;;5.63;5.13;;;5.80;99.90;;;;;;5067993;28;20310;-82
2021/12/15 08:51:36;;;;;;;5.83;5.10;;;5.80;99.90;;;;;;5068578;28;20191;-80
2021/12/15 08:54:06;;;;;;;5.53;4.90;;;5.80;99.90;;;;;;5067534;28;20213;-82
2021/12/15 08:56:34;;;;;;;4.93;4.30;;;5.70;99.90;;;;;;5067140;28;20210;-82
2021/12/15 08:59:01;;;;;;;6.00;5.13;;;5.70;99.90;;;;;;5067482;28;20218;-84
2021/12/15 09:01:28;;;;;;;5.43;4.93;;;5.70;99.90;;;;;;5065493;28;20209;-82
2021/12/15 09:03:56;;;;;;;6.50;5.67;;;5.70;99.90;;;;;;5067376;28;20210;-83
2021/12/15 09:06:24;;;;;;;6.53;5.57;;;5.70;99.90;;;;;;5067048;28;20601;-84
2021/12/15 09:08:52;;;;;;;7.37;5.67;;;5.70;99.90;;;;;;5068571;28;20215;-83
2021/12/15 09:11:27;;;;;;;7.30;5.73;;;5.70;99.90;;;;;;5067277;28;20195;-82
2021/12/15 09:13:56;;;;;;;8.37;6.03;;;5.60;99.90;;;;;;5069340;28;20195;-82
2021/12/15 09:16:24;;;;;;;7.40;5.63;;;5.60;99.90;;;;;;5070038;28;20210;-82
2021/12/15 09:18:52;;;;;;;7.47;5.20;;;5.60;99.90;;;;;;5068941;28;20223;-83
2021/12/15 09:21:22;;;;;;;7.60;6.30;;;5.70;99.90;;;;;;5069056;28;20204;-84
2021/12/15 09:23:49;;;;;;;7.57;5.60;;;5.80;99.90;;;;;;5069061;28;20203;-83
2021/12/15 09:26:41;;;;;;;6.77;5.43;;;5.70;99.90;;;;;;5066480;28;20637;-82
2021/12/15 09:29:09;;;;;;;6.33;5.67;;;5.70;99.90;;;;;;5054250;28;20239;-82
2021/12/15 09:31:36;;;;;;;6.00;4.90;;;5.70;99.90;;;;;;5055650;28;20199;-82
2021/12/15 09:34:05;;;;;;;5.47;4.83;;;5.70;99.90;;;;;;5055098;28;20256;-82
2021/12/15 09:36:33;;;;;;;5.30;4.73;;;5.70;99.90;;;;;;5055378;28;20699;-82
2021/12/15 09:39:05;;;;;;;6.17;4.80;;;5.70;99.90;;;;;;5056406;28;20234;-83
2021/12/15 09:41:33;;;;;;;5.17;4.67;;;5.70;99.90;;;;;;5052901;28;20203;-83
2021/12/15 09:44:07;;;;;;;6.63;4.67;;;5.80;99.90;;;;;;5054949;28;20290;-83
2021/12/15 09:46:41;;;;;;;6.10;4.80;;;5.80;99.90;;;;;;5063782;28;20245;-83
2021/12/15 09:57:45;;;;;;;7.17;5.07;;;5.80;99.90;;;;;;5053909;28;20203;-83
2021/12/15 10:03:00;;;;;;;7.50;5.27;;;5.90;99.90;;;;;;5010954;28;20210;-82
2021/12/15 10:05:46;;;;;;;5.57;4.90;;;5.90;99.90;;;;;;5054010;28;20188;-83
2021/12/15 10:11:17;;;;;;;6.93;5.17;;;6.00;99.90;;;;;;5054555;28;20292;-83
2021/12/15 10:19:25;;;;;;;6.50;5.33;;;6.10;99.90;;;;;;5052817;28;20224;-82
2021/12/15 10:22:10;;;;;;;7.53;5.33;;;6.10;99.90;;;;;;5053396;28;20211;-82
2021/12/15 10:24:47;;;;;;;7.80;5.37;;;6.10;99.90;;;;;;5052961;28;20295;-82
2021/12/15 10:27:16;;;;;;;8.53;6.40;;;6.10;99.90;;;;;;5053322;28;20209;-83
2021/12/15 10:30:18;;;;;;;9.50;6.47;;;6.10;99.90;;;;;;5053221;28;20259;-82
2021/12/15 10:32:50;;;;;;;9.73;6.13;;;6.10;99.90;;;;;;5047908;28;20731;-82
2021/12/15 10:35:20;;;;;;;7.80;6.27;;;6.10;99.90;;;;;;5053670;28;20204;-82
2021/12/15 10:38:28;;;;;;;9.87;6.70;;;6.10;99.90;;;;;;5052774;28;20668;-83
2021/12/15 10:41:02;;;;;;;10.10;9.10;;;6.10;99.90;;;;;;5039535;28;20513;-82
2021/12/15 10:43:32;;;;;;;10.00;8.93;;;6.20;99.90;;;;;;5053439;28;20204;-82
2021/12/15 10:46:03;;;;;;;11.03;9.40;;;6.20;99.90;;;;;;5053598;28;20199;-82
2021/12/15 10:48:38;;;;;;;12.93;10.43;;;6.30;99.90;;;;;;5045221;28;20227;-83
2021/12/15 10:51:32;;;;;;;12.23;10.10;;;6.30;99.90;;;;;;5053444;28;20588;-84
2021/12/15 10:54:01;;;;;;;13.73;11.27;;;6.40;99.90;;;;;;5053745;28;20205;-81
2021/12/15 10:56:30;;;;;;;13.60;11.47;;;6.40;99.90;;;;;;5044645;28;20197;-84
2021/12/15 10:59:00;;;;;;;14.50;11.87;;;6.40;99.90;;;;;;5052076;28;20709;-81
2021/12/15 11:01:37;;;;;;;13.53;12.20;;;6.40;99.90;;;;;;5052099;28;20199;-81
2021/12/15 11:04:21;;;;;;;14.63;13.10;;;6.40;99.90;;;;;;5052677;28;20191;-82
2021/12/15 11:07:18;;;;;;;14.20;12.80;;;6.40;99.90;;;;;;5048032;28;20233;-82
2021/12/15 11:09:48;;;;;;;17.33;15.63;;;6.40;99.90;;;;;;5032843;28;20231;-82
2021/12/15 11:12:19;;;;;;;19.13;17.23;;;6.40;99.90;;;;;;5052465;28;20733;-82
2021/12/15 11:14:54;;;;;;;23.07;18.43;;;6.40;99.90;;;;;;5051564;28;20204;-85
2021/12/15 11:17:24;;;;;;;22.57;18.50;;;6.40;99.90;;;;;;5052308;28;20645;-83
2021/12/15 11:20:09;;;;;;;22.60;19.37;;;6.40;99.90;;;;;;5052709;28;20720;-83
2021/12/15 11:22:47;;;;;;;20.50;18.17;;;6.30;99.90;;;;;;5045240;28;20218;-85
2021/12/15 11:25:27;;;;;;;22.00;18.10;;;6.40;99.90;;;;;;5051339;28;20622;-82
2021/12/15 11:28:08;;;;;;;25.30;19.33;;;6.40;99.90;;;;;;5050993;28;20666;-82
2021/12/15 11:30:41;;;;;;;23.37;18.73;;;6.50;99.90;;;;;;5039826;28;20235;-82
2021/12/15 11:33:12;;;;;;;20.10;17.97;;;6.40;99.90;;;;;;5051313;28;20201;-83
2021/12/15 11:35:44;;;;;;;21.67;17.40;;;6.50;99.90;;;;;;5051314;28;20218;-81
2021/12/15 11:38:16;;;;;;;18.23;16.33;;;6.40;99.90;;;;;;5051167;28;20207;-83
2021/12/15 11:40:47;;;;;;;21.30;17.60;;;6.40;99.90;;;;;;5051096;28;20607;-82
2021/12/15 11:43:29;;;;;;;18.30;11.40;;;6.40;99.90;;;;;;5051407;28;20218;-82
2021/12/15 11:45:56;;;;;;;22.17;12.93;;;6.40;99.90;;;;;;5051052;28;20200;-82
2021/12/15 11:48:26;;;;;;;18.83;12.27;;;6.40;99.90;;;;;;5050626;28;20597;-83
2021/12/15 11:50:57;;;;;;;20.03;12.30;;;6.40;99.90;;;;;;5050417;28;20231;-82
2021/12/15 11:53:31;;;;;;;23.33;12.67;;;6.40;99.90;;;;;;5051095;28;20200;-82
2021/12/15 11:56:13;;;;;;;21.67;13.47;;;6.40;99.90;;;;;;5050803;28;20223;-82
2021/12/15 11:58:40;;;;;;;19.57;11.83;;;6.50;99.90;;;;;;5050592;28;20212;-82
2021/12/15 12:01:08;;;;;;;15.57;10.57;;;6.50;99.90;;;;;;5053522;28;20549;-82
2021/12/15 12:03:35;;;;;;;16.47;10.33;;;6.50;99.90;;;;;;5058120;28;20207;-83
2021/12/15 12:06:04;;;;;;;14.73;10.07;;;6.50;99.90;;;;;;5055358;28;20221;-82
2021/12/15 12:08:31;;;;;;;15.70;9.90;;;6.40;99.90;;;;;;5050590;28;20667;-83
2021/12/15 12:11:05;;;;;;;14.07;9.87;;;6.40;99.90;;;;;;5055445;28;20202;-82
2021/12/15 12:13:38;;;;;;;14.43;9.80;;;6.40;99.90;;;;;;5039592;28;20228;-82
2021/12/15 12:16:08;;;;;;;16.43;10.67;;;6.40;99.90;;;;;;5050952;28;20232;-84
2021/12/15 12:18:35;;;;;;;16.07;11.33;;;6.50;99.90;;;;;;5051569;28;20446;-84
2021/12/15 12:21:07;;;;;;;18.57;11.87;;;6.50;99.90;;;;;;5054896;28;20200;-85
2021/12/15 12:23:36;;;;;;;19.33;11.93;;;6.40;99.90;;;;;;5047083;28;20207;-84
2021/12/15 12:26:05;;;;;;;16.13;11.00;;;6.50;99.90;;;;;;5048894;28;20196;-84
2021/12/15 12:28:36;;;;;;;20.73;13.10;;;6.50;99.90;;;;;;5053571;28;20222;-84
2021/12/15 12:31:06;;;;;;;17.50;12.23;;;6.40;99.90;;;;;;5052634;28;20201;-83
2021/12/15 12:33:33;;;;;;;15.97;10.77;;;6.40;99.90;;;;;;5052465;28;20197;-83
2021/12/15 12:36:06;;;;;;;13.27;9.67;;;6.40;99.90;;;;;;5052066;28;20215;-84
2021/12/15 12:38:37;;;;;;;12.37;8.63;;;6.40;99.90;;;;;;5051850;28;20678;-83
2021/12/15 12:41:07;;;;;;;11.63;9.23;;;6.40;99.90;;;;;;5052219;28;20210;-83
2021/12/15 12:43:39;;;;;;;11.67;7.77;;;6.40;99.90;;;;;;5052317;28;20733;-83
2021/12/15 12:46:13;;;;;;;11.90;8.67;;;6.40;99.90;;;;;;5051717;28;20206;-84
2021/12/15 12:59:44;;;;;;;12.50;8.70;;;6.40;99.90;;;;;;5045073;28;20212;-83
2021/12/15 13:02:46;;;;;;;11.27;8.80;;;6.50;99.90;;;;;;5052591;28;20209;-83
2021/12/15 13:05:37;;;;;;;13.67;9.83;;;6.40;99.90;;;;;;5055683;28;20670;-84
2021/12/15 13:08:10;;;;;;;13.90;9.47;;;6.50;99.90;;;;;;5054879;28;20254;-82
2021/12/15 13:11:05;;;;;;;14.77;9.77;;;6.50;99.90;;;;;;5055179;28;20224;-83
2021/12/15 13:13:35;;;;;;;13.73;9.73;;;6.50;99.90;;;;;;5048928;28;20194;-84
2021/12/15 13:16:05;;;;;;;14.23;10.13;;;6.50;99.90;;;;;;5056197;28;20181;-83
2021/12/15 13:18:47;;;;;;;13.57;9.37;;;6.50;99.90;;;;;;5054762;28;20261;-82
2021/12/15 13:21:17;;;;;;;12.10;9.20;;;6.50;99.90;;;;;;5056347;28;20425;-83
2021/12/15 13:23:50;;;;;;;10.23;7.87;;;6.50;99.90;;;;;;5054114;28;20245;-82
2021/12/15 13:29:38;;;;;;;12.30;8.97;;;6.50;99.90;;;;;;5046192;28;20227;-82
2021/12/15 13:32:07;;;;;;;12.03;8.13;;;6.40;99.90;;;;;;5054061;28;20209;-83
2021/12/15 13:34:40;;;;;;;10.63;8.20;;;6.40;99.90;;;;;;5053841;28;20631;-83
2021/12/15 13:37:08;;;;;;;11.47;8.37;;;6.40;99.90;;;;;;5055171;28;20209;-83
2021/12/15 13:39:47;;;;;;;11.73;8.47;;;6.30;99.90;;;;;;5053849;28;20771;-82
2021/12/15 13:42:39;;;;;;;12.07;8.60;;;6.30;99.90;;;;;;5053408;28;20200;-82
2021/12/15 13:45:25;;;;;;;12.13;7.97;;;6.30;99.90;;;;;;5050698;28;20201;-83
2021/12/15 13:47:52;;;;;;;10.30;7.73;;;6.30;99.90;;;;;;5054988;28;20196;-82
2021/12/15 13:50:21;;;;;;;9.10;7.07;;;6.30;99.90;;;;;;5053252;28;20220;-82
2021/12/15 13:52:59;;;;;;;8.77;7.57;;;6.30;99.90;;;;;;5055365;28;20209;-82
2021/12/15 13:55:30;;;;;;;8.80;6.87;;;6.30;99.90;;;;;;5053583;28;20239;-82
2021/12/15 13:58:13;;;;;;;8.70;7.03;;;6.40;99.90;;;;;;5052976;28;20222;-82
2021/12/15 14:00:48;;;;;;;9.87;6.73;;;6.30;99.90;;;;;;5053408;28;20228;-82
2021/12/15 14:03:19;;;;;;;9.97;7.57;;;6.30;99.90;;;;;;5054545;28;20207;-82
2021/12/15 14:05:50;;;;;;;8.57;7.23;;;6.30;99.90;;;;;;5053205;28;20668;-83
2021/12/15 14:08:19;;;;;;;8.23;7.00;;;6.30;99.90;;;;;;5054578;28;20720;-83
2021/12/15 14:10:55;;;;;;;8.47;6.83;;;6.30;99.90;;;;;;5053124;28;20233;-82